ADDS METAR Data

Data at: 1027 UTC 20 Jul 2018

METAR for:KJFK (New York/Kennedy Int, NY, US)
Text:KJFK 200951Z 00000KT 10SM FEW250 20/19 A3015 RMK AO2 SLP209 T02000194
Temperature: 20.0°C ( 68°F)
Dewpoint: 19.4°C ( 67°F) [RH = 96%]
Pressure (altimeter):30.15 inches Hg (1021.1 mb) [Sea level pressure: 1020.9 mb]
Winds:calm
Visibility:10 or more sm (16+ km)
Ceiling:at least 12,000 feet AGL
Clouds: few clouds at 25000 feet AGL